Latest Coastal Weather Observations for Cape Moreton

IDQ60701

Issued at 9:51 am EST Sunday 4 December 2016 (issued every 10 minutes, with the page automatically refreshed every 10 minutes)

About coastal observations | Map of coastal stations | Coastal observations for QLD | Marine services | Other Formats
Station Details ID: 040043 Name: CAPE MORETON LIGHTHOUSE Lat: -27.03 Lon: 153.47 Height: 99.9 m
Data from the previous 72 hours. | See also: Recent months at Cape Moreton
Date/Time
EST
Temp
°C
Wind Pressure Rain since
9am
mm
Weather Cloud Vis
km
Sea
Height
m
Swell
Dir  Spd
kts
Gust
kts
hPa Trend Height
m
Period
s
Dir
04/09:30am 25.1 N 14 17 1016.0 - 0.0 - - - - - - -
04/09:00am 24.9 N 15 19 1016.0 - 6.0 - - - - - - -
04/08:30am 25.0 N 14 18 1016.0 - 6.0 - - - - - - -
04/08:00am 24.7 N 14 18 1015.9 - 6.0 - - - - - - -
04/07:30am 24.9 NNE 13 18 1015.7 - 6.0 - - - - - - -
04/07:00am 24.7 NNE 11 15 1015.8 - 6.0 - - - - - - -
04/06:30am 24.7 NNE 13 15 1015.4 - 6.0 - - - - - - -
04/06:00am 24.6 NE 10 13 1015.3 - 6.0 - - - - - - -
04/05:30am 23.6 NE 11 14 1015.1 - 6.0 - - - - - - -
04/05:00am 22.8 ENE 10 13 1014.7 - 6.0 - - - - - - -
04/04:30am 22.5 ENE 9 11 1014.7 - 6.0 - - - - - - -
04/04:00am 22.3 ESE 11 13 1014.8 - 6.0 - - - - - - -
04/03:43am 22.2 ESE 9 19 1014.8 - 6.0 - - - - - - -
04/03:30am 22.1 W 6 8 1013.9 - 6.0 - - - - - - -
04/03:00am 22.3 WNW 8 10 1013.3 - 6.0 - - - - - - -
04/02:30am 22.5 WNW 12 15 1013.1 - 6.0 - - - - - - -
04/02:00am 22.7 WNW 16 22 1012.5 - 6.0 - - - - - - -
04/01:30am 22.8 WNW 17 23 1012.7 - 6.0 - - - - - - -
04/01:00am 22.7 WNW 18 22 1013.4 - 6.0 - - - - - - -
04/12:30am 23.0 NW 13 18 1014.2 - 6.0 - - - - - - -
04/12:00am 23.2 NNW 14 19 1014.4 - 6.0 - - - - - - -
 
Date/Time
EST
Temp
°C
Wind Pressure Rain since
9am
mm
Weather Cloud Vis
km
Sea
Height
m
Swell
Dir  Spd
kts
Gust
kts
hPa Trend Height
m
Period
s
Dir
03/11:30pm 23.4 N 15 19 1015.2 - 6.0 - - - - - - -
03/11:00pm 23.4 N 16 22 1015.6 - 6.0 - - - - - - -
03/10:30pm 23.4 NNE 21 25 1015.9 - 6.0 - - - - - - -
03/10:00pm 23.4 NNE 21 28 1016.3 - 6.0 - - - - - - -
03/09:30pm 23.4 NE 23 28 1016.0 - 6.0 - - - - - - -
03/09:00pm 22.9 ENE 27 31 1015.4 - 6.0 Recent precip. - - - - - -
03/08:30pm 22.6 E 32 40 1015.1 - 6.0 - - - - - - -
03/08:24pm 22.5 E 24 37 1015.5 - 5.8 - - - - - - -
03/08:17pm 22.3 E 16 23 1017.3 - 5.6 - - - - - - -
03/08:00pm 22.1 SE 10 13 1018.8 - 5.2 - - - - - - -
03/07:30pm 23.0 SSW 12 19 1019.1 - 3.8 - - - - - - -
03/07:00pm 24.3 E 3 8 1017.4 - 0.0 - - - - - - -
03/06:56pm 24.3 NE 2 6 1016.7 - 0.0 - - - - - - -
03/06:30pm 24.3 N 7 14 1014.7 - 0.0 - - - - - - -
03/06:24pm 24.2 NNE 13 19 1013.9 - 0.0 - - - - - - -
03/06:00pm 24.1 NNE 23 27 1011.9 - 0.0 - - - - - - -
03/05:30pm 24.2 NNE 21 29 1011.3 - 0.0 - - - - - - -
03/05:00pm 24.3 NNE 22 27 1010.9 - 0.0 - - - - - - -
03/04:30pm 24.9 NNE 22 28 1010.6 - 0.0 - - - - - - -
03/04:00pm 25.1 NNE 21 25 1010.8 - 0.0 - - - - - - -
03/03:30pm 25.6 NNE 19 23 1011.4 - 0.0 - - - - - - -
03/03:00pm 25.9 NNE 18 25 1011.5 - 0.0 - - - - - - -
03/02:30pm 26.4 N 16 24 1012.1 - 0.0 - - - - - - -
03/02:00pm 26.7 NNE 15 21 1012.7 - 0.0 - - - - - - -
03/01:30pm 26.7 NNE 14 20 1013.2 - 0.0 - - - - - - -
03/01:00pm 26.9 NNE 15 21 1013.5 - 0.0 - - - - - - -
03/12:30pm 27.0 NNE 16 21 1013.9 - 0.0 - - - - - - -
03/12:00pm 27.5 NNE 13 18 1014.3 - 0.0 - - - - - - -
03/11:30am 27.2 N 12 19 1014.6 - 0.0 - - - - - - -
03/11:00am 26.8 N 12 17 1014.9 - 0.0 - - - - - - -
03/10:30am 25.9 N 13 18 1015.4 - 0.0 - - - - - - -
03/10:00am 25.5 N 15 19 1015.2 - 0.0 - - - - - - -
03/09:30am 26.1 N 13 16 1015.6 - 0.0 - - - - - - -
03/09:00am 25.2 N 14 18 1015.5 - 0.0 - - - - - - -
03/08:30am 24.8 N 13 17 1015.8 - 0.0 - - - - - - -
03/08:00am 24.6 N 14 18 1015.4 - 0.0 - - - - - - -
03/07:30am 24.0 N 15 17 1015.1 - 0.0 - - - - - - -
03/07:00am 23.7 N 14 17 1014.9 - 0.0 - - - - - - -
03/06:30am 23.7 N 15 18 1014.5 - 0.0 - - - - - - -
03/06:00am 23.6 N 15 18 1014.1 - 0.0 - - - - - - -
03/05:30am 23.6 N 16 19 1013.6 - 0.0 - - - - - - -
03/05:00am 23.6 N 15 18 1013.2 - 0.0 - - - - - - -
03/04:30am 23.6 N 14 19 1012.8 - 0.0 - - - - - - -
03/04:00am 23.6 N 13 17 1012.5 - 0.0 - - - - - - -
03/03:30am 23.5 N 14 19 1012.3 - 0.0 - - - - - - -
03/03:00am 23.5 N 16 19 1012.3 - 0.0 - - - - - - -
03/02:30am 23.5 N 17 21 1012.2 - 0.0 - - - - - - -
03/02:00am 23.6 NNW 17 22 1012.3 - 0.0 - - - - - - -
03/01:30am 23.4 N 16 19 1012.5 - 0.0 - - - - - - -
03/01:00am 23.4 N 18 22 1012.6 - 0.0 - - - - - - -
03/12:30am 23.4 N 18 23 1012.7 - 0.0 - - - - - - -
03/12:00am 23.4 N 19 23 1013.2 - 0.0 - - - - - - -
 
Date/Time
EST
Temp
°C
Wind Pressure Rain since
9am
mm
Weather Cloud Vis
km
Sea
Height
m
Swell
Dir  Spd
kts
Gust
kts
hPa Trend Height
m
Period
s
Dir
02/11:30pm 23.4 N 20 24 1012.9 - 0.0 - - - - - - -
02/11:00pm 23.5 N 20 25 1013.1 - 0.0 - - - - - - -
02/10:30pm 23.6 N 19 24 1013.3 - 0.0 - - - - - - -
02/10:00pm 23.6 N 17 21 1013.3 - 0.0 - - - - - - -
02/09:30pm 23.7 N 16 21 1013.2 - 0.0 - - - - - - -
02/09:00pm 23.6 N 16 23 1012.7 - 0.0 - - - - - - -
02/08:30pm 23.7 N 17 23 1012.4 - 0.0 - - - - - - -
02/08:00pm 23.7 N 17 23 1011.9 - 0.0 - - - - - - -
02/07:30pm 23.7 N 16 23 1011.7 - 0.0 - - - - - - -
02/07:00pm 23.7 N 16 23 1011.4 - 0.0 - - - - - - -
02/06:30pm 23.8 N 17 24 1010.9 - 0.0 - - - - - - -
02/06:00pm 23.9 N 18 23 1010.4 - 0.0 - - - - - - -
02/05:30pm 24.2 N 19 25 1010.1 - 0.0 - - - - - - -
02/05:00pm 24.5 N 17 23 1009.9 - 0.0 - - - - - - -
02/04:30pm 24.7 NNE 18 23 1009.8 - 0.0 - - - - - - -
02/04:00pm 25.3 N 16 23 1009.8 - 0.0 - - - - - - -
02/03:30pm 25.4 NNE 17 22 1009.8 - 0.0 - - - - - - -
02/03:00pm 25.9 NNE 17 23 1010.0 - 0.0 - - - - - - -
02/02:30pm 26.1 NNE 17 23 1010.2 - 0.0 - - - - - - -
02/02:00pm 25.9 NNE 19 25 1010.4 - 0.0 - - - - - - -
02/01:30pm 25.9 NNE 20 25 1010.4 - 0.0 - - - - - - -
02/01:00pm 26.3 NNE 18 23 1010.8 - 0.0 - - - - - - -
02/12:30pm 26.3 N 15 21 1011.3 - 0.0 - - - - - - -
02/12:00pm 26.3 N 15 21 1011.5 - 0.0 - - - - - - -
02/11:30am 26.3 N 15 22 1011.9 - 0.0 - - - - - - -
02/11:00am 26.2 N 15 20 1012.0 - 0.0 - - - - - - -
02/10:30am 26.1 N 13 18 1012.2 - 0.0 - - - - - - -
02/10:00am 25.1 N 14 18 1012.6 - 0.0 - - - - - - -
02/09:30am 25.0 N 14 18 1012.7 - 0.0 - - - - - - -
02/09:00am 24.2 N 14 17 1012.9 - 2.0 - - - - - - -
02/08:30am 24.9 NNW 11 15 1013.1 - 2.0 - - - - - - -
02/08:00am 23.9 NNW 14 19 1012.9 - 2.0 - - - - - - -
02/07:30am 23.4 NW 15 20 1012.8 - 2.0 - - - - - - -
02/07:00am 23.8 NNW 16 23 1012.4 - 2.0 - - - - - - -
02/06:30am 23.1 NW 14 20 1012.1 - 2.0 - - - - - - -
02/06:00am 23.3 NNW 14 22 1011.8 - 2.0 - - - - - - -
02/05:30am 23.1 N 20 25 1011.4 - 2.0 - - - - - - -
02/05:00am 22.7 NNW 19 23 1011.4 - 2.0 - - - - - - -
02/04:30am 22.6 NNW 14 20 1011.0 - 2.0 - - - - - - -
02/04:00am 22.9 NNW 14 19 1010.7 - 2.0 - - - - - - -
02/03:30am 22.8 NNW 17 23 1010.5 - 2.0 - - - - - - -
02/03:00am 23.0 NNW 17 22 1010.5 - 2.0 - - - - - - -
02/02:30am 22.9 N 19 23 1010.3 - 2.0 - - - - - - -
02/02:00am 23.0 NNW 18 25 1010.3 - 2.0 - - - - - - -
02/01:30am 23.0 NNW 16 22 1010.2 - 2.0 - - - - - - -
02/01:00am 22.9 N 17 21 1010.3 - 2.0 - - - - - - -
02/12:30am 22.8 NNW 15 20 1010.5 - 2.0 - - - - - - -
02/12:00am 22.9 NNW 15 21 1010.8 - 2.0 - - - - - - -
 
Date/Time
EST
Temp
°C
Wind Pressure Rain since
9am
mm
Weather Cloud Vis
km
Sea
Height
m
Swell
Dir  Spd
kts
Gust
kts
hPa Trend Height
m
Period
s
Dir
01/11:30pm 23.1 N 17 22 1011.3 - 2.0 - - - - - - -
01/11:00pm 23.1 N 14 21 1011.5 - 2.0 - - - - - - -
01/10:30pm 23.1 N 17 22 1011.5 - 2.0 - - - - - - -
01/10:00pm 23.2 N 19 26 1011.4 - 2.0 - - - - - - -
01/09:30pm 23.0 NNE 19 25 1011.3 - 2.0 - - - - - - -
01/09:00pm 23.1 N 21 27 1011.1 - 2.0 - - - - - - -
01/08:30pm 23.1 NNE 23 28 1010.8 - 2.0 - - - - - - -
01/08:00pm 23.2 NNE 27 33 1010.0 - 2.0 - - - - - - -
01/07:30pm 22.9 NNE 27 33 1010.2 - 2.0 - - - - - - -
01/07:00pm 23.0 NNE 20 27 1011.8 - 2.0 - - - - - - -
01/06:59pm 23.0 NNE 20 27 1011.8 - 1.8 - - - - - - -
01/06:30pm 22.9 NNE 24 31 1009.7 - 1.8 - - - - - - -
01/06:00pm 22.5 NE 16 29 1009.2 - 1.8 Rain - - - - - -
01/05:57pm 22.7 NE 12 21 1010.3 - 1.6 - - - - - - -
01/05:41pm 23.7 NE 15 29 1011.1 - 0.0 - - - - - - -
01/05:37pm 23.7 NE 22 31 1009.1 - 0.0 - - - - - - -
01/05:30pm 23.6 NNE 26 32 1007.1 - 0.0 - - - - - - -
01/05:00pm 23.7 NNE 25 33 1007.1 - 0.0 - - - - - - -
01/04:30pm 23.7 NNE 25 33 1006.3 - 0.0 - - - - - - -
01/04:00pm 23.9 NNE 22 28 1007.1 - 0.0 - - - - - - -
01/03:30pm 23.7 NNE 23 29 1007.2 - 0.0 - - - - - - -
01/03:00pm 24.1 NNE 20 24 1007.5 - 0.0 - - - - - - -
01/02:30pm 25.1 NNE 19 25 1008.1 - 0.0 - - - - - - -
01/02:00pm 25.6 NNE 17 22 1008.7 - 0.0 - - - - - - -
01/01:30pm 25.8 NNE 18 23 1009.1 - 0.0 - - - - - - -
01/01:00pm 25.9 NNE 19 24 1009.6 - 0.0 - - - - - - -
01/12:30pm 25.6 NNE 17 23 1009.8 - 0.0 - - - - - - -
01/12:00pm 26.3 NNE 15 21 1010.2 - 0.0 - - - - - - -
01/11:30am 26.4 NNE 15 19 1011.0 - 0.0 - - - - - - -
01/11:00am 25.4 N 13 18 1011.8 - 0.0 - - - - - - -
01/10:30am 25.4 NNW 14 18 1012.3 - 0.0 - - - - - - -
01/10:00am 24.3 NW 13 16 1012.8 - 0.0 - - - - - - -

Other Formats:

Comma delimited format used in spreadsheet applications
http://www.bom.gov.au/fwo/IDQ60701/IDQ60701.94594.axf

JavaScript Object Notation format (JSON) in row-major order
http://www.bom.gov.au/fwo/IDQ60701/IDQ60701.94594.json